createdAt,value
2022-08-20T00:02:11.605Z,28.05
2022-08-20T00:04:39.465Z,25.48
2022-08-20T00:07:07.001Z,27.65
2022-08-20T00:09:33.728Z,28.55
2022-08-20T00:12:05.411Z,27.80
2022-08-20T00:14:33.941Z,27.20
2022-08-20T00:17:01.703Z,28.65
2022-08-20T00:19:30.919Z,29.08
2022-08-20T00:21:58.226Z,25.98
2022-08-20T00:24:25.672Z,25.02
2022-08-20T00:26:52.983Z,24.92
2022-08-20T00:29:20.459Z,28.55
2022-08-20T00:31:49.835Z,28.90
2022-08-20T00:34:16.605Z,29.42
2022-08-20T00:36:43.491Z,27.45
2022-08-20T00:39:10.301Z,30.23
2022-08-20T00:41:37.130Z,36.33
2022-08-20T00:44:08.637Z,34.38
2022-08-20T00:46:36.219Z,38.20
2022-08-20T00:49:05.148Z,35.88
2022-08-20T00:51:41.132Z,36.15
2022-08-20T00:54:36.225Z,32.65
2022-08-20T00:57:59.053Z,34.33
2022-08-20T01:00:42.387Z,34.67
2022-08-20T01:03:11.431Z,35.05
2022-08-20T01:05:40.033Z,34.50
2022-08-20T01:08:07.596Z,35.35
2022-08-20T01:10:37.388Z,35.67
2022-08-20T01:13:08.075Z,36.90
2022-08-20T01:15:38.059Z,33.05
2022-08-20T01:18:11.932Z,35.75
2022-08-20T01:20:42.733Z,34.53
2022-08-20T01:23:15.258Z,34.22
2022-08-20T01:25:57.358Z,34.72
2022-08-20T01:28:33.960Z,34.13
2022-08-20T01:31:00.698Z,34.97
2022-08-20T01:33:27.538Z,33.97
2022-08-20T01:35:54.620Z,33.03
2022-08-20T01:38:21.618Z,33.75
2022-08-20T01:41:03.943Z,32.90
2022-08-20T01:43:31.154Z,31.65
2022-08-20T01:46:04.156Z,33.60
2022-08-20T01:48:31.792Z,33.38
2022-08-20T01:51:06.045Z,31.98
2022-08-20T01:53:37.036Z,32.03
2022-08-20T01:56:07.528Z,30.77
2022-08-20T01:58:35.967Z,30.65
2022-08-20T02:01:02.904Z,28.88
2022-08-20T02:03:32.507Z,26.58
2022-08-20T02:06:02.077Z,23.92
2022-08-20T02:08:28.855Z,25.05
2022-08-20T02:10:55.556Z,24.73
2022-08-20T02:13:22.365Z,23.45
2022-08-20T02:15:49.036Z,23.48
2022-08-20T02:18:16.094Z,21.10
2022-08-20T02:20:44.538Z,19.95
2022-08-20T02:23:12.205Z,18.48
2022-08-20T02:25:41.860Z,16.45
2022-08-20T02:28:11.592Z,16.15
2022-08-20T02:30:43.211Z,16.70
2022-08-20T02:33:12.780Z,15.65
2022-08-20T02:35:40.854Z,15.90
2022-08-20T02:38:07.683Z,14.50
2022-08-20T02:40:34.608Z,15.30
2022-08-20T02:43:02.059Z,15.55
2022-08-20T02:45:31.712Z,16.70
2022-08-20T02:47:58.523Z,17.42
2022-08-20T02:50:26.930Z,18.45
2022-08-20T02:52:54.231Z,18.88
2022-08-20T02:55:27.951Z,21.13
2022-08-20T02:58:01.363Z,23.63
2022-08-20T03:00:30.154Z,22.75
2022-08-20T03:03:03.451Z,26.10
2022-08-20T03:05:30.130Z,22.80
2022-08-20T03:07:57.230Z,25.98
2022-08-20T03:10:30.795Z,27.30
2022-08-20T03:12:57.772Z,30.70
2022-08-20T03:15:24.525Z,34.35
2022-08-20T03:17:51.334Z,29.13
2022-08-20T03:20:18.306Z,28.98
2022-08-20T03:22:50.941Z,30.77
2022-08-20T03:25:18.180Z,33.92
2022-08-20T03:27:45.511Z,28.00
2022-08-20T03:30:14.372Z,29.85
2022-08-20T03:32:41.709Z,30.60
2022-08-20T03:35:11.627Z,35.22
2022-08-20T03:37:39.470Z,33.83
2022-08-20T03:40:17.043Z,38.05
2022-08-20T03:42:43.809Z,36.25
2022-08-20T03:45:15.048Z,39.72
2022-08-20T03:47:43.854Z,44.03
2022-08-20T03:50:11.544Z,40.75
2022-08-20T03:52:49.961Z,42.90
2022-08-20T03:55:16.770Z,43.83
2022-08-20T03:57:50.622Z,44.38
2022-08-20T04:00:21.911Z,48.20
2022-08-20T04:02:48.699Z,43.28
2022-08-20T04:05:15.587Z,44.65
2022-08-20T04:07:42.745Z,45.38
2022-08-20T04:10:11.853Z,47.58
2022-08-20T04:12:39.025Z,44.88
2022-08-20T04:15:15.563Z,46.78
2022-08-20T04:17:46.561Z,43.83
2022-08-20T04:20:15.938Z,41.63
2022-08-20T04:22:42.633Z,40.67
2022-08-20T04:25:25.769Z,39.75
2022-08-20T04:27:53.671Z,39.83
2022-08-20T04:30:20.622Z,39.28
2022-08-20T04:32:47.291Z,38.15
2022-08-20T04:35:14.634Z,40.63
2022-08-20T04:37:42.177Z,40.90
2022-08-20T04:40:13.243Z,40.85
2022-08-20T04:42:40.048Z,42.53
2022-08-20T04:45:10.815Z,41.22
2022-08-20T04:47:37.620Z,40.90
2022-08-20T04:50:07.444Z,40.45
2022-08-20T04:52:37.232Z,39.80
2022-08-20T04:55:05.258Z,39.75
2022-08-20T04:57:33.755Z,40.47
2022-08-20T05:00:00.759Z,41.75
2022-08-20T05:02:27.440Z,44.08
2022-08-20T05:04:54.178Z,41.78
2022-08-20T05:07:21.885Z,46.15
2022-08-20T05:09:48.589Z,42.53
2022-08-20T05:12:15.264Z,42.30
2022-08-20T05:14:42.071Z,42.28
2022-08-20T05:17:09.186Z,46.63
2022-08-20T05:19:38.892Z,43.55
2022-08-20T05:22:05.726Z,42.45
2022-08-20T05:24:32.577Z,42.67
2022-08-20T05:27:02.361Z,42.40
2022-08-20T05:29:29.026Z,41.88
2022-08-20T05:31:55.774Z,41.00
2022-08-20T05:34:22.593Z,40.38
2022-08-20T05:36:51.063Z,38.67
2022-08-20T05:39:19.783Z,37.25
2022-08-20T05:41:47.027Z,39.90
2022-08-20T05:44:13.874Z,36.53
2022-08-20T05:46:42.509Z,39.95
2022-08-20T05:49:11.346Z,38.47
2022-08-20T05:51:38.147Z,38.47
2022-08-20T05:54:06.160Z,38.13
2022-08-20T05:56:33.388Z,39.00
2022-08-20T05:59:01.584Z,37.30
2022-08-20T06:01:28.880Z,36.75
2022-08-20T06:03:55.922Z,36.90
2022-08-20T06:06:44.625Z,36.78
2022-08-20T06:09:09.398Z,37.83
2022-08-20T06:11:37.341Z,37.30
2022-08-20T06:14:05.055Z,37.65
2022-08-20T06:16:31.820Z,38.80
2022-08-20T06:18:58.811Z,36.78
2022-08-20T06:21:26.187Z,37.08
2022-08-20T06:23:58.411Z,36.00
2022-08-20T06:26:30.296Z,36.08
2022-08-20T06:28:58.603Z,37.78
2022-08-20T06:31:25.575Z,37.45
2022-08-20T06:33:52.262Z,35.78
2022-08-20T06:36:19.687Z,36.80
2022-08-20T06:38:46.563Z,37.05
2022-08-20T06:41:13.797Z,36.58
2022-08-20T06:43:40.733Z,37.53
2022-08-20T06:46:07.599Z,35.53
2022-08-20T06:48:34.721Z,39.22
2022-08-20T06:51:01.389Z,38.47
2022-08-20T06:53:28.087Z,37.97
2022-08-20T06:55:56.707Z,37.33
2022-08-20T06:58:35.643Z,40.58
2022-08-20T07:01:10.958Z,36.17
2022-08-20T07:03:55.443Z,40.95
2022-08-20T07:06:23.813Z,39.17
2022-08-20T07:08:50.550Z,40.35
2022-08-20T07:11:17.255Z,38.97
2022-08-20T07:13:44.028Z,36.25
2022-08-20T07:16:10.760Z,39.13
2022-08-20T07:18:39.813Z,41.03
2022-08-20T07:21:06.595Z,40.67
2022-08-20T07:23:33.382Z,39.28
2022-08-20T07:26:00.080Z,38.53
2022-08-20T07:28:27.717Z,41.42
2022-08-20T07:30:56.886Z,40.53
2022-08-20T07:33:28.420Z,40.58
2022-08-20T07:35:56.737Z,40.95
2022-08-20T07:38:24.939Z,41.55
2022-08-20T07:40:54.653Z,43.28
2022-08-20T07:43:22.023Z,43.47
2022-08-20T07:45:49.820Z,44.72
2022-08-20T07:48:29.700Z,44.75
2022-08-20T07:51:00.727Z,45.20
2022-08-20T07:53:30.235Z,46.20
2022-08-20T07:56:01.403Z,42.47
2022-08-20T07:58:33.422Z,44.90
2022-08-20T08:01:00.688Z,45.10
2022-08-20T08:03:41.056Z,44.67
2022-08-20T08:06:14.576Z,46.92
2022-08-20T08:08:43.964Z,46.63
2022-08-20T08:11:12.133Z,45.92
2022-08-20T08:13:41.183Z,44.63
2022-08-20T08:16:09.593Z,46.67
2022-08-20T08:18:45.194Z,48.15
2022-08-20T08:23:40.281Z,47.65
2022-08-20T08:26:06.993Z,46.30
2022-08-20T08:28:43.295Z,47.35
2022-08-20T08:31:11.337Z,48.45
2022-08-20T08:33:38.199Z,50.65
2022-08-20T08:36:10.967Z,48.47
2022-08-20T08:38:39.927Z,48.50
2022-08-20T08:41:35.856Z,49.65
2022-08-20T08:44:15.724Z,49.53
2022-08-20T08:46:44.594Z,49.03
2022-08-20T08:49:17.532Z,49.78
2022-08-20T08:51:56.687Z,49.15
2022-08-20T08:54:28.419Z,48.40
2022-08-20T08:56:55.607Z,50.45
2022-08-20T08:59:23.393Z,49.05
2022-08-20T09:01:57.154Z,50.13
2022-08-20T09:04:38.914Z,47.08
2022-08-20T09:07:10.533Z,49.40
2022-08-20T09:09:40.527Z,48.90
2022-08-20T09:12:12.632Z,47.00
2022-08-20T09:14:40.168Z,46.15
2022-08-20T09:17:07.380Z,47.83
2022-08-20T09:19:34.079Z,46.17
2022-08-20T09:22:11.311Z,46.28
2022-08-20T09:24:38.777Z,46.67
2022-08-20T09:27:06.047Z,44.58
2022-08-20T09:29:33.053Z,44.88
2022-08-20T09:32:10.574Z,44.38
2022-08-20T09:34:39.294Z,46.05
2022-08-20T09:37:06.419Z,44.47
2022-08-20T09:39:33.352Z,45.40
2022-08-20T09:42:15.054Z,44.20
2022-08-20T09:44:41.828Z,45.05
2022-08-20T09:47:08.975Z,44.85
2022-08-20T09:49:36.104Z,44.60
2022-08-20T09:52:05.656Z,45.40
2022-08-20T09:54:33.061Z,45.28
2022-08-20T09:57:06.761Z,47.42
2022-08-20T09:59:35.508Z,44.83
2022-08-20T10:02:02.401Z,47.92
2022-08-20T10:04:29.291Z,47.22
2022-08-20T10:06:56.663Z,48.05
2022-08-20T10:09:23.599Z,46.63
2022-08-20T10:11:50.293Z,46.33
2022-08-20T10:14:16.973Z,44.42
2022-08-20T10:16:43.673Z,50.28
2022-08-20T10:19:10.424Z,44.47
2022-08-20T10:21:40.288Z,43.58
2022-08-20T10:24:06.999Z,40.10
2022-08-20T10:26:33.832Z,40.10
2022-08-20T10:29:00.547Z,38.33
2022-08-20T10:31:27.301Z,37.10
2022-08-20T10:33:54.243Z,36.40
2022-08-20T10:36:20.966Z,35.15
2022-08-20T10:38:47.808Z,34.42
2022-08-20T10:41:14.907Z,34.33
2022-08-20T10:43:41.684Z,29.88
2022-08-20T10:46:08.592Z,29.08
2022-08-20T10:48:35.581Z,26.40
2022-08-20T10:51:02.826Z,25.92
2022-08-20T10:53:30.020Z,28.35
2022-08-20T10:55:57.649Z,21.35
2022-08-20T10:58:25.529Z,21.55
2022-08-20T11:00:53.139Z,21.23
2022-08-20T11:03:20.562Z,22.85
2022-08-20T11:05:48.007Z,20.77
2022-08-20T11:08:14.851Z,20.38
2022-08-20T11:13:27.557Z,21.80
2022-08-20T11:15:54.435Z,22.42
2022-08-20T11:18:21.324Z,21.77
2022-08-20T11:20:48.079Z,22.63
2022-08-20T11:23:14.866Z,20.30
2022-08-20T11:25:41.673Z,19.83
2022-08-20T11:28:08.370Z,20.02
2022-08-20T11:30:37.089Z,17.80
2022-08-20T11:33:04.679Z,16.55
2022-08-20T11:35:50.059Z,17.83
2022-08-20T11:38:18.035Z,16.05
2022-08-20T11:40:45.363Z,18.17
2022-08-20T11:43:15.079Z,12.10
2022-08-20T11:45:47.599Z,15.00
2022-08-20T11:48:14.409Z,17.13
2022-08-20T11:50:41.234Z,13.00
2022-08-20T11:53:08.288Z,12.18
2022-08-20T11:55:35.677Z,12.02
2022-08-20T11:58:02.995Z,11.10
2022-08-20T12:00:32.952Z,9.88
2022-08-20T12:03:05.731Z,12.13
2022-08-20T12:05:37.161Z,10.55
2022-08-20T12:08:04.211Z,9.82
2022-08-20T12:10:32.239Z,12.13
2022-08-20T12:12:59.273Z,10.82
2022-08-20T12:15:26.753Z,9.80
2022-08-20T12:17:54.863Z,12.00
2022-08-20T12:20:23.168Z,11.25
2022-08-20T12:22:50.428Z,10.50
2022-08-20T12:25:17.204Z,11.32
2022-08-20T12:27:43.915Z,13.07
2022-08-20T12:30:14.872Z,10.40
2022-08-20T12:32:41.976Z,15.05
2022-08-20T12:35:10.027Z,12.32
2022-08-20T12:37:36.779Z,11.93
2022-08-20T12:40:06.749Z,12.18
2022-08-20T12:42:33.646Z,12.10
2022-08-20T12:45:01.112Z,12.27
2022-08-20T12:47:31.226Z,11.55
2022-08-20T12:50:05.288Z,10.43
2022-08-20T12:52:32.649Z,11.65
2022-08-20T12:55:00.507Z,9.82
2022-08-20T12:57:29.153Z,11.98
2022-08-20T13:00:05.867Z,14.65
2022-08-20T13:02:32.639Z,10.05
2022-08-20T13:05:04.558Z,10.18
2022-08-20T13:07:33.382Z,10.63
2022-08-20T13:10:01.004Z,9.40
2022-08-20T13:12:28.491Z,10.93
2022-08-20T13:14:55.234Z,9.02
2022-08-20T13:17:38.004Z,12.32
2022-08-20T13:20:08.905Z,9.10
2022-08-20T13:22:35.806Z,10.38
2022-08-20T13:25:02.571Z,11.43
2022-08-20T13:27:29.669Z,13.90
2022-08-20T13:29:58.801Z,12.95
2022-08-20T13:32:26.347Z,10.23
2022-08-20T13:34:53.626Z,15.98
2022-08-20T13:37:25.655Z,13.45
2022-08-20T13:39:53.551Z,11.38
2022-08-20T13:42:20.835Z,12.95
2022-08-20T13:44:48.597Z,12.00
2022-08-20T13:47:19.722Z,13.68
2022-08-20T13:49:47.748Z,15.75
2022-08-20T13:52:16.919Z,14.30
2022-08-20T13:54:43.968Z,16.40
2022-08-20T13:57:17.860Z,17.35
2022-08-20T13:59:47.165Z,14.32
2022-08-20T14:02:14.482Z,16.65
2022-08-20T14:04:41.283Z,18.23
2022-08-20T14:07:18.662Z,17.25
2022-08-20T14:09:48.691Z,19.13
2022-08-20T14:12:15.934Z,42.17
2022-08-20T14:14:42.779Z,21.25
2022-08-20T14:17:24.593Z,23.85
2022-08-20T14:19:55.023Z,29.02
2022-08-20T14:22:25.231Z,23.40
2022-08-20T14:24:52.387Z,26.27
2022-08-20T14:27:21.613Z,24.75
2022-08-20T14:29:50.148Z,30.85
2022-08-20T14:32:17.667Z,28.20
2022-08-20T14:34:44.605Z,31.48
2022-08-20T14:37:21.449Z,29.80
2022-08-20T14:39:51.537Z,31.55
2022-08-20T14:42:18.751Z,27.05
2022-08-20T14:44:45.656Z,27.35
2022-08-20T14:47:12.449Z,26.42
2022-08-20T14:49:39.144Z,25.00
2022-08-20T14:52:06.649Z,24.98
2022-08-20T14:54:34.857Z,23.90
2022-08-20T14:57:02.266Z,25.15
2022-08-20T14:59:29.228Z,31.38
2022-08-20T15:01:56.010Z,22.83
2022-08-20T15:04:23.788Z,26.77
2022-08-20T15:06:54.628Z,24.85
2022-08-20T15:09:21.564Z,25.35
2022-08-20T15:11:48.678Z,25.63
2022-08-20T15:14:18.550Z,23.17
2022-08-20T15:16:46.281Z,27.13
2022-08-20T15:19:12.970Z,26.25
2022-08-20T15:21:45.249Z,29.02
2022-08-20T15:24:15.685Z,25.95
2022-08-20T15:26:46.398Z,25.55
2022-08-20T15:29:22.987Z,23.85
2022-08-20T15:31:50.859Z,29.83
2022-08-20T15:34:18.221Z,23.35
2022-08-20T15:36:45.704Z,25.48
2022-08-20T15:39:12.442Z,25.20
2022-08-20T15:41:39.147Z,24.05
2022-08-20T15:44:05.818Z,27.75
2022-08-20T15:46:36.064Z,28.42
2022-08-20T15:49:11.144Z,28.73
2022-08-20T15:51:45.859Z,26.23
2022-08-20T15:54:24.910Z,26.52
2022-08-20T15:56:57.703Z,28.08
2022-08-20T15:59:31.839Z,28.23
2022-08-20T16:02:10.146Z,28.33
2022-08-20T16:04:50.715Z,28.58
2022-08-20T16:11:16.617Z,28.52
2022-08-20T16:14:09.573Z,29.40
2022-08-20T16:16:42.445Z,31.90
2022-08-20T16:19:17.143Z,31.27
2022-08-20T16:21:46.143Z,31.77
2022-08-20T16:24:14.562Z,32.65
2022-08-20T16:26:47.251Z,31.08
2022-08-20T16:29:25.577Z,28.73
2022-08-20T16:32:28.695Z,30.23
2022-08-20T16:35:07.391Z,31.55
2022-08-20T16:38:20.797Z,33.03
2022-08-20T16:40:56.831Z,31.60
2022-08-20T16:43:39.673Z,28.48
2022-08-20T16:46:19.951Z,28.15
2022-08-20T16:48:54.106Z,27.48
2022-08-20T16:51:48.195Z,30.38
2022-08-20T16:54:20.928Z,32.45
2022-08-20T16:57:05.159Z,35.85
2022-08-20T17:02:18.539Z,33.80
2022-08-20T17:05:00.067Z,32.35
2022-08-20T17:07:46.489Z,31.77
2022-08-20T17:10:32.837Z,32.83
2022-08-20T17:13:17.694Z,30.83
2022-08-20T17:15:54.750Z,33.97
2022-08-20T17:18:36.419Z,36.00
2022-08-20T17:21:34.186Z,32.28
2022-08-20T17:24:16.638Z,33.20
2022-08-20T17:26:50.422Z,32.22
2022-08-20T17:29:26.511Z,32.55
2022-08-20T17:32:16.982Z,33.22
2022-08-20T17:34:52.858Z,32.58
2022-08-20T17:37:24.038Z,31.75
2022-08-20T17:40:33.236Z,32.55
2022-08-20T17:43:05.931Z,33.13
2022-08-20T17:45:45.752Z,33.33
2022-08-20T17:48:24.412Z,31.98
2022-08-20T17:50:54.087Z,34.13
2022-08-20T17:56:41.209Z,30.08
2022-08-20T17:59:36.394Z,35.17
2022-08-20T18:02:14.817Z,34.67
2022-08-20T18:04:44.551Z,28.90
2022-08-20T18:07:24.556Z,29.85
2022-08-20T18:10:13.977Z,31.42
2022-08-20T18:12:59.445Z,25.27
2022-08-20T18:15:39.263Z,21.35
2022-08-20T18:18:28.551Z,19.92
2022-08-20T18:21:32.498Z,18.55
2022-08-20T18:24:11.834Z,17.00
2022-08-20T18:26:49.460Z,14.65
2022-08-20T18:29:21.071Z,14.65
2022-08-20T18:31:55.326Z,13.35
2022-08-20T18:34:28.153Z,15.85
2022-08-20T18:37:08.233Z,13.88
2022-08-20T18:39:42.430Z,11.90
2022-08-20T18:42:25.430Z,13.15
2022-08-20T18:44:54.821Z,12.27
2022-08-20T18:47:33.611Z,13.75
2022-08-20T18:50:16.453Z,10.90
2022-08-20T18:52:51.219Z,12.43
2022-08-20T18:55:43.453Z,10.55
2022-08-20T18:58:14.357Z,10.02
2022-08-20T19:00:46.783Z,10.50
2022-08-20T19:03:19.162Z,9.45
2022-08-20T19:05:45.804Z,11.23
2022-08-20T19:08:16.921Z,9.13
2022-08-20T19:11:28.168Z,9.23
2022-08-20T19:14:41.362Z,13.18
2022-08-20T19:17:24.001Z,10.65
2022-08-20T19:20:20.525Z,12.65
2022-08-20T19:26:24.819Z,13.43
2022-08-20T19:28:58.968Z,11.75
2022-08-20T19:31:33.562Z,11.55
2022-08-20T19:34:23.144Z,12.70
2022-08-20T19:37:07.778Z,15.55
2022-08-20T19:39:37.479Z,15.20
2022-08-20T19:42:15.953Z,15.43
2022-08-20T19:45:02.420Z,13.50
2022-08-20T19:47:36.867Z,15.00
2022-08-20T19:50:12.679Z,12.68
2022-08-20T19:53:10.263Z,15.50
2022-08-20T19:55:39.407Z,16.23
2022-08-20T19:58:18.826Z,14.07
2022-08-20T20:00:55.851Z,12.80
2022-08-20T20:03:31.170Z,12.60
2022-08-20T20:06:19.710Z,14.77
2022-08-20T20:09:14.805Z,15.70
2022-08-20T20:11:46.936Z,15.57
2022-08-20T20:14:16.375Z,14.98
2022-08-20T20:16:48.625Z,13.48
2022-08-20T20:19:27.253Z,14.27
2022-08-20T20:22:19.508Z,13.15
2022-08-20T20:24:57.223Z,17.10
2022-08-20T20:27:26.566Z,13.18
2022-08-20T20:30:32.408Z,13.93
2022-08-20T20:33:11.796Z,20.73
2022-08-20T20:35:39.985Z,16.63
2022-08-20T20:38:13.230Z,13.25
2022-08-20T20:40:52.978Z,13.68
2022-08-20T20:43:42.083Z,15.73
2022-08-20T20:46:25.569Z,12.40
2022-08-20T20:49:17.100Z,12.07
2022-08-20T20:51:59.047Z,15.05
2022-08-20T20:54:30.086Z,14.63
2022-08-20T20:57:36.434Z,12.13
2022-08-20T21:00:15.933Z,13.45
2022-08-20T21:02:46.288Z,14.70
2022-08-20T21:05:19.981Z,15.68
2022-08-20T21:07:53.855Z,14.52
2022-08-20T21:10:24.689Z,18.40
2022-08-20T21:12:53.621Z,16.20
2022-08-20T21:15:23.672Z,16.48
2022-08-20T21:17:52.262Z,17.55
2022-08-20T21:20:21.605Z,16.67
2022-08-20T21:22:50.428Z,16.20
2022-08-20T21:25:21.954Z,17.13
2022-08-20T21:27:52.567Z,13.95
2022-08-20T21:30:22.548Z,15.73
2022-08-20T21:32:52.886Z,16.73
2022-08-20T21:35:21.756Z,16.20
2022-08-20T21:37:49.929Z,16.73
2022-08-20T21:40:21.674Z,17.27
2022-08-20T21:42:55.921Z,18.20
2022-08-20T21:45:23.343Z,16.15
2022-08-20T21:47:56.489Z,16.42
2022-08-20T21:50:25.232Z,19.92
2022-08-20T21:52:59.929Z,20.80
2022-08-20T21:55:32.181Z,19.70
2022-08-20T21:58:02.766Z,20.75
2022-08-20T22:00:47.606Z,19.13
2022-08-20T22:03:16.622Z,16.13
2022-08-20T22:05:49.268Z,15.90
2022-08-20T22:08:16.547Z,14.05
2022-08-20T22:10:44.802Z,13.20
2022-08-20T22:13:13.690Z,18.77
2022-08-20T22:15:40.683Z,13.23
2022-08-20T22:18:09.156Z,12.20
2022-08-20T22:20:37.516Z,12.02
2022-08-20T22:23:06.137Z,14.18
2022-08-20T22:25:34.481Z,13.52
2022-08-20T22:28:02.514Z,11.40
2022-08-20T22:30:30.489Z,13.05
2022-08-20T22:33:05.147Z,12.40
2022-08-20T22:35:34.776Z,11.50
2022-08-20T22:38:02.620Z,14.48
2022-08-20T22:40:30.711Z,11.30
2022-08-20T22:42:58.887Z,9.85
2022-08-20T22:45:27.305Z,10.80
2022-08-20T22:47:56.572Z,12.68
2022-08-20T22:50:28.211Z,13.50
2022-08-20T22:52:56.403Z,13.23
2022-08-20T22:55:27.794Z,12.45
2022-08-20T22:57:58.374Z,11.57
2022-08-20T23:00:26.885Z,11.70
2022-08-20T23:02:58.246Z,11.25
2022-08-20T23:05:29.272Z,11.63
2022-08-20T23:07:58.597Z,13.95
2022-08-20T23:10:28.615Z,14.32
2022-08-20T23:12:56.896Z,9.55
2022-08-20T23:15:36.358Z,11.10
2022-08-20T23:18:15.779Z,10.60
2022-08-20T23:20:49.959Z,12.50
2022-08-20T23:23:18.329Z,11.82
2022-08-20T23:25:47.085Z,11.88
2022-08-20T23:28:18.576Z,12.73
2022-08-20T23:30:48.027Z,12.30
2022-08-20T23:33:16.626Z,10.52
2022-08-20T23:35:45.534Z,12.25
2022-08-20T23:38:14.073Z,14.95
2022-08-20T23:40:42.526Z,11.90
2022-08-20T23:43:10.748Z,13.40
2022-08-20T23:45:40.110Z,11.55
2022-08-20T23:48:09.286Z,13.75
2022-08-20T23:50:37.694Z,12.52
2022-08-20T23:53:06.026Z,10.48
2022-08-20T23:55:34.128Z,11.68
2022-08-20T23:58:04.438Z,11.93
